createdAt,value
2022-10-25T00:04:56.926Z,92.46
2022-10-25T00:09:58.652Z,92.20
2022-10-25T00:15:02.228Z,91.86
2022-10-25T00:20:04.611Z,91.56
2022-10-25T00:25:07.975Z,91.65
2022-10-25T00:30:10.492Z,91.23
2022-10-25T00:35:12.144Z,90.61
2022-10-25T00:40:13.806Z,90.88
2022-10-25T00:45:21.412Z,90.99
2022-10-25T00:50:31.841Z,91.49
2022-10-25T00:55:36.030Z,90.94
2022-10-25T01:00:37.937Z,91.15
2022-10-25T01:05:39.747Z,91.00
2022-10-25T01:10:41.522Z,91.27
2022-10-25T01:15:51.490Z,91.37
2022-10-25T01:21:19.640Z,91.08
2022-10-25T01:27:03.171Z,90.51
2022-10-25T01:32:23.290Z,89.24
2022-10-25T01:37:40.996Z,90.99
2022-10-25T01:43:02.457Z,91.11
2022-10-25T01:48:16.891Z,91.24
2022-10-25T01:53:18.914Z,91.39
2022-10-25T01:58:46.680Z,92.11
2022-10-25T02:03:59.497Z,91.91
2022-10-25T02:09:27.720Z,92.38
2022-10-25T02:14:35.714Z,93.26
2022-10-25T02:19:42.039Z,93.13
2022-10-25T02:24:46.768Z,92.84
2022-10-25T02:29:49.451Z,93.00
2022-10-25T02:34:51.284Z,92.41
2022-10-25T02:39:53.508Z,92.19
2022-10-25T02:44:55.269Z,92.93
2022-10-25T02:49:56.906Z,93.00
2022-10-25T02:54:58.590Z,92.91
2022-10-25T03:00:00.525Z,93.19
2022-10-25T03:05:02.325Z,92.96
2022-10-25T03:10:04.460Z,91.51
2022-10-25T03:15:06.792Z,90.44
2022-10-25T03:20:09.081Z,90.14
2022-10-25T03:25:10.950Z,90.40
2022-10-25T03:30:14.138Z,90.82
2022-10-25T03:35:15.838Z,90.96
2022-10-25T03:40:19.147Z,91.15
2022-10-25T03:45:21.048Z,91.53
2022-10-25T03:50:22.666Z,92.02
2022-10-25T03:55:24.423Z,92.73
2022-10-25T04:00:27.172Z,92.96
2022-10-25T04:05:29.130Z,92.23
2022-10-25T04:10:30.834Z,92.88
2022-10-25T04:15:34.007Z,94.02
2022-10-25T04:20:36.024Z,94.50
2022-10-25T04:25:37.670Z,94.94
2022-10-25T04:30:39.638Z,95.04
2022-10-25T04:35:41.377Z,95.87
2022-10-25T04:40:43.529Z,96.67
2022-10-25T04:45:45.187Z,96.69
2022-10-25T04:50:47.691Z,97.04
2022-10-25T04:56:00.356Z,96.97
2022-10-25T05:01:07.737Z,96.66
2022-10-25T05:06:15.693Z,96.29
2022-10-25T05:11:19.862Z,96.09
2022-10-25T05:16:24.744Z,95.38
2022-10-25T05:21:30.146Z,99.31
2022-10-25T05:26:32.205Z,97.62
2022-10-25T05:31:33.924Z,95.51
2022-10-25T05:36:35.569Z,94.11
2022-10-25T05:41:37.586Z,92.16
2022-10-25T05:46:39.246Z,89.75
2022-10-25T05:51:41.058Z,88.46
2022-10-25T05:56:43.100Z,87.94
2022-10-25T06:01:46.785Z,88.65
2022-10-25T06:06:48.634Z,89.61
2022-10-25T06:11:50.306Z,90.34
2022-10-25T06:16:51.962Z,90.93
2022-10-25T06:21:56.714Z,91.38
2022-10-25T06:26:58.412Z,90.63
2022-10-25T06:32:00.085Z,91.20
2022-10-25T06:37:01.872Z,92.12
2022-10-25T06:42:04.418Z,92.74
2022-10-25T06:47:22.389Z,93.39
2022-10-25T06:52:24.155Z,93.50
2022-10-25T06:57:25.859Z,94.04
2022-10-25T07:02:28.080Z,94.37
2022-10-25T07:07:30.082Z,95.70
2022-10-25T07:12:37.958Z,96.23
2022-10-25T07:17:39.644Z,95.85
2022-10-25T07:22:41.306Z,96.41
2022-10-25T07:27:42.977Z,96.84
2022-10-25T07:32:44.698Z,96.72
2022-10-25T07:37:46.614Z,96.85
2022-10-25T07:42:49.782Z,99.20
2022-10-25T07:47:52.247Z,100.00
2022-10-25T07:52:55.199Z,100.00
2022-10-25T07:58:01.507Z,100.00
2022-10-25T08:03:03.814Z,100.00
2022-10-25T08:08:05.616Z,99.78
2022-10-25T08:13:07.351Z,98.92
2022-10-25T08:18:09.739Z,98.05
2022-10-25T08:23:12.262Z,97.14
2022-10-25T08:28:14.202Z,97.19
2022-10-25T08:33:15.893Z,97.88
2022-10-25T08:38:18.479Z,97.76
2022-10-25T08:43:50.031Z,97.11
2022-10-25T08:49:12.079Z,96.02
2022-10-25T08:54:27.975Z,95.46
2022-10-25T08:59:34.202Z,95.51
2022-10-25T09:04:35.979Z,94.18
2022-10-25T09:10:30.712Z,93.51
2022-10-25T09:15:32.704Z,92.75
2022-10-25T09:20:41.520Z,92.05
2022-10-25T09:25:52.240Z,92.17
2022-10-25T09:31:00.392Z,91.25
2022-10-25T09:36:04.042Z,90.57
2022-10-25T09:41:11.929Z,89.61
2022-10-25T09:46:19.560Z,89.44
2022-10-25T09:51:37.960Z,88.60
2022-10-25T09:56:40.042Z,88.62
2022-10-25T10:01:42.470Z,88.78
2022-10-25T10:06:44.698Z,88.18
2022-10-25T10:11:48.137Z,88.01
2022-10-25T10:16:56.531Z,87.92
2022-10-25T10:22:01.708Z,87.84
2022-10-25T10:27:08.455Z,87.84
2022-10-25T10:32:26.716Z,88.41
2022-10-25T10:37:31.344Z,87.88
2022-10-25T10:42:35.501Z,86.72
2022-10-25T10:47:44.500Z,85.20
2022-10-25T10:52:47.915Z,85.26
2022-10-25T10:57:52.906Z,82.31
2022-10-25T11:02:57.755Z,81.40
2022-10-25T11:08:17.578Z,80.68
2022-10-25T11:13:20.376Z,80.54
2022-10-25T11:19:03.853Z,78.52
2022-10-25T11:24:08.557Z,77.81
2022-10-25T11:29:27.022Z,75.00
2022-10-25T11:34:59.203Z,74.50
2022-10-25T11:40:16.095Z,75.75
2022-10-25T11:45:39.334Z,75.46
2022-10-25T11:51:06.827Z,73.92
2022-10-25T11:56:36.507Z,72.60
2022-10-25T12:01:57.197Z,69.69
2022-10-25T12:07:17.798Z,68.47
2022-10-25T12:12:25.906Z,67.68
2022-10-25T12:17:31.216Z,68.15
2022-10-25T12:22:49.182Z,67.09
2022-10-25T12:28:00.741Z,65.19
2022-10-25T12:33:27.675Z,67.14
2022-10-25T12:38:40.210Z,64.75
2022-10-25T12:43:51.020Z,65.23
2022-10-25T12:49:11.591Z,64.76
2022-10-25T12:54:50.592Z,64.55
2022-10-25T13:00:03.836Z,63.80
2022-10-25T13:05:42.457Z,63.63
2022-10-25T13:10:58.110Z,64.24
2022-10-25T13:16:02.899Z,63.54
2022-10-25T13:21:07.581Z,63.10
2022-10-25T13:26:20.452Z,62.63
2022-10-25T13:31:34.401Z,63.92
2022-10-25T13:36:55.989Z,63.88
2022-10-25T13:42:18.102Z,63.16
2022-10-25T13:47:35.631Z,63.02
2022-10-25T13:52:37.721Z,62.86
2022-10-25T13:57:48.432Z,63.34
2022-10-25T14:03:08.530Z,64.00
2022-10-25T14:08:27.889Z,61.80
2022-10-25T14:13:54.959Z,62.01
2022-10-25T14:19:02.248Z,62.77
2022-10-25T14:24:11.508Z,62.33
2022-10-25T14:29:15.335Z,62.78
2022-10-25T14:34:20.840Z,62.17
2022-10-25T14:39:28.470Z,62.59
2022-10-25T14:44:43.692Z,62.67
2022-10-25T14:49:45.508Z,63.30
2022-10-25T14:54:56.396Z,64.22
2022-10-25T15:00:02.276Z,64.22
2022-10-25T15:05:05.394Z,64.71
2022-10-25T15:10:27.339Z,65.22
2022-10-25T15:15:40.454Z,67.57
2022-10-25T15:20:42.164Z,68.62
2022-10-25T15:25:43.852Z,70.38
2022-10-25T15:30:48.762Z,71.54
2022-10-25T15:35:59.510Z,73.24
2022-10-25T15:41:02.854Z,74.36
2022-10-25T15:46:05.181Z,76.21
2022-10-25T15:51:11.708Z,77.24
2022-10-25T15:56:17.199Z,77.76
2022-10-25T16:01:19.216Z,78.43
2022-10-25T16:06:21.001Z,80.25
2022-10-25T16:11:22.830Z,80.98
2022-10-25T16:16:39.935Z,81.27
2022-10-25T16:21:42.841Z,81.59
2022-10-25T16:26:46.784Z,81.69
2022-10-25T16:31:48.528Z,81.53
2022-10-25T16:36:50.749Z,82.13
2022-10-25T16:41:54.809Z,82.02
2022-10-25T16:46:56.517Z,82.12
2022-10-25T16:51:58.408Z,82.88
2022-10-25T16:57:00.101Z,83.09
2022-10-25T17:02:01.928Z,83.34
2022-10-25T17:07:03.764Z,83.39
2022-10-25T17:12:05.632Z,83.42
2022-10-25T17:17:07.594Z,84.00
2022-10-25T17:22:09.285Z,84.11
2022-10-25T17:27:10.985Z,84.10
2022-10-25T17:32:12.770Z,84.30
2022-10-25T17:37:14.540Z,84.54
2022-10-25T17:42:16.382Z,84.80
2022-10-25T17:47:18.120Z,85.27
2022-10-25T17:52:20.678Z,85.45
2022-10-25T17:57:22.626Z,85.66
2022-10-25T18:02:24.598Z,85.77
2022-10-25T18:07:28.878Z,85.88
2022-10-25T18:12:33.376Z,85.45
2022-10-25T18:17:35.059Z,85.93
2022-10-25T18:22:36.707Z,86.80
2022-10-25T18:27:38.488Z,87.35
2022-10-25T18:32:40.200Z,87.30
2022-10-25T18:37:41.840Z,87.23
2022-10-25T18:42:43.489Z,87.44
2022-10-25T18:47:49.474Z,87.75
2022-10-25T18:52:53.216Z,88.09
2022-10-25T18:57:55.504Z,88.76
2022-10-25T19:02:57.779Z,89.54
2022-10-25T19:07:59.540Z,89.67
2022-10-25T19:13:01.342Z,89.22
2022-10-25T19:18:03.152Z,89.18
2022-10-25T19:23:04.801Z,89.65
2022-10-25T19:28:07.832Z,90.15
2022-10-25T19:33:09.545Z,90.79
2022-10-25T19:38:12.553Z,90.64
2022-10-25T19:43:15.429Z,91.11
2022-10-25T19:48:17.285Z,91.63
2022-10-25T19:53:19.251Z,91.07
2022-10-25T19:58:20.954Z,91.21
2022-10-25T20:03:22.806Z,91.05
2022-10-25T20:08:24.417Z,91.18
2022-10-25T20:13:26.122Z,91.84
2022-10-25T20:18:34.333Z,92.06
2022-10-25T20:23:36.567Z,91.97
2022-10-25T20:28:38.329Z,92.30
2022-10-25T20:33:40.696Z,92.06
2022-10-25T20:38:42.587Z,92.49
2022-10-25T20:43:52.784Z,92.50
2022-10-25T20:48:54.602Z,92.42
2022-10-25T20:53:56.962Z,91.98
2022-10-25T20:58:58.781Z,92.19
2022-10-25T21:04:00.534Z,93.04
2022-10-25T21:09:02.255Z,92.48
2022-10-25T21:14:03.910Z,93.10
2022-10-25T21:19:05.768Z,92.59
2022-10-25T21:24:09.998Z,92.86
2022-10-25T21:29:11.864Z,93.40
2022-10-25T21:34:13.550Z,93.73
2022-10-25T21:39:19.661Z,92.67
2022-10-25T21:44:22.375Z,92.29
2022-10-25T21:49:24.045Z,91.76
2022-10-25T21:54:25.775Z,91.70
2022-10-25T21:59:27.527Z,92.14
2022-10-25T22:04:29.235Z,92.41
2022-10-25T22:09:31.040Z,92.19
2022-10-25T22:14:32.682Z,92.65
2022-10-25T22:19:34.408Z,93.27
2022-10-25T22:24:36.225Z,93.47
2022-10-25T22:29:38.013Z,93.13
2022-10-25T22:34:39.700Z,91.85
2022-10-25T22:39:41.430Z,91.38
2022-10-25T22:44:43.097Z,91.31
2022-10-25T22:49:44.742Z,90.28
2022-10-25T22:54:47.157Z,89.96
2022-10-25T22:59:48.835Z,90.17
2022-10-25T23:04:50.541Z,90.09
2022-10-25T23:09:52.265Z,90.14
2022-10-25T23:14:53.888Z,89.84
2022-10-25T23:19:55.525Z,89.81
2022-10-25T23:24:57.185Z,89.74
2022-10-25T23:29:59.013Z,89.65
2022-10-25T23:35:00.660Z,89.59
2022-10-25T23:40:02.283Z,89.86
2022-10-25T23:45:05.295Z,90.21
2022-10-25T23:50:08.654Z,89.73
2022-10-25T23:55:10.422Z,89.13
